sensor_id;sensor_type;location;lat;lon;timestamp;temperature;humidity
16907;DHT22;8570;52.380;4.654;2022-07-25T00:02:32;23.80;90.40
16907;DHT22;8570;52.380;4.654;2022-07-25T00:07:35;23.80;90.60
16907;DHT22;8570;52.380;4.654;2022-07-25T00:12:37;23.70;90.70
16907;DHT22;8570;52.380;4.654;2022-07-25T00:17:39;23.60;90.90
16907;DHT22;8570;52.380;4.654;2022-07-25T00:22:42;23.60;91.00
16907;DHT22;8570;52.380;4.654;2022-07-25T00:27:44;23.60;91.20
16907;DHT22;8570;52.380;4.654;2022-07-25T00:32:46;23.60;91.20
16907;DHT22;8570;52.380;4.654;2022-07-25T00:37:50;23.50;91.50
16907;DHT22;8570;52.380;4.654;2022-07-25T00:42:52;23.50;91.60
16907;DHT22;8570;52.380;4.654;2022-07-25T00:47:54;23.50;91.90
16907;DHT22;8570;52.380;4.654;2022-07-25T00:52:57;23.50;92.00
16907;DHT22;8570;52.380;4.654;2022-07-25T00:57:59;23.50;91.90
16907;DHT22;8570;52.380;4.654;2022-07-25T01:03:01;23.40;92.10
16907;DHT22;8570;52.380;4.654;2022-07-25T01:08:05;23.40;91.90
16907;DHT22;8570;52.380;4.654;2022-07-25T01:13:07;23.40;91.90
16907;DHT22;8570;52.380;4.654;2022-07-25T01:18:09;23.40;92.00
16907;DHT22;8570;52.380;4.654;2022-07-25T01:23:12;23.30;92.10
16907;DHT22;8570;52.380;4.654;2022-07-25T01:28:14;23.30;92.20
16907;DHT22;8570;52.380;4.654;2022-07-25T01:33:17;23.30;92.30
16907;DHT22;8570;52.380;4.654;2022-07-25T01:38:20;23.30;92.70
16907;DHT22;8570;52.380;4.654;2022-07-25T01:43:22;23.20;93.10
16907;DHT22;8570;52.380;4.654;2022-07-25T01:48:24;23.20;93.50
16907;DHT22;8570;52.380;4.654;2022-07-25T01:53:27;23.20;93.50
16907;DHT22;8570;52.380;4.654;2022-07-25T01:58:31;23.20;93.80
16907;DHT22;8570;52.380;4.654;2022-07-25T02:03:32;23.10;93.60
16907;DHT22;8570;52.380;4.654;2022-07-25T02:08:36;23.10;93.60
16907;DHT22;8570;52.380;4.654;2022-07-25T02:13:38;23.00;93.60
16907;DHT22;8570;52.380;4.654;2022-07-25T02:18:40;23.00;93.70
16907;DHT22;8570;52.380;4.654;2022-07-25T02:23:44;23.00;93.90
16907;DHT22;8570;52.380;4.654;2022-07-25T02:28:46;22.90;94.20
16907;DHT22;8570;52.380;4.654;2022-07-25T02:33:48;22.90;94.20
16907;DHT22;8570;52.380;4.654;2022-07-25T02:38:51;22.90;94.20
16907;DHT22;8570;52.380;4.654;2022-07-25T02:43:53;22.80;94.40
16907;DHT22;8570;52.380;4.654;2022-07-25T02:48:54;22.80;94.40
16907;DHT22;8570;52.380;4.654;2022-07-25T02:53:58;22.80;94.60
16907;DHT22;8570;52.380;4.654;2022-07-25T02:59:00;22.80;94.70
16907;DHT22;8570;52.380;4.654;2022-07-25T03:04:01;22.70;94.80
16907;DHT22;8570;52.380;4.654;2022-07-25T03:09:05;22.70;94.90
16907;DHT22;8570;52.380;4.654;2022-07-25T03:14:07;22.60;95.20
16907;DHT22;8570;52.380;4.654;2022-07-25T03:19:09;22.60;95.30
16907;DHT22;8570;52.380;4.654;2022-07-25T03:24:13;22.50;95.40
16907;DHT22;8570;52.380;4.654;2022-07-25T03:29:15;22.50;95.50
16907;DHT22;8570;52.380;4.654;2022-07-25T03:34:17;22.40;95.50
16907;DHT22;8570;52.380;4.654;2022-07-25T03:39:21;22.40;95.50
16907;DHT22;8570;52.380;4.654;2022-07-25T03:44:24;22.30;95.50
16907;DHT22;8570;52.380;4.654;2022-07-25T03:49:26;22.30;95.50
16907;DHT22;8570;52.380;4.654;2022-07-25T03:54:29;22.20;95.40
16907;DHT22;8570;52.380;4.654;2022-07-25T03:59:31;22.20;95.10
16907;DHT22;8570;52.380;4.654;2022-07-25T04:04:33;22.20;95.10
16907;DHT22;8570;52.380;4.654;2022-07-25T04:09:36;22.10;95.00
16907;DHT22;8570;52.380;4.654;2022-07-25T04:14:38;22.10;95.00
16907;DHT22;8570;52.380;4.654;2022-07-25T04:19:40;22.00;95.20
16907;DHT22;8570;52.380;4.654;2022-07-25T04:24:45;22.00;95.50
16907;DHT22;8570;52.380;4.654;2022-07-25T04:29:47;21.90;95.70
16907;DHT22;8570;52.380;4.654;2022-07-25T04:34:49;21.90;96.30
16907;DHT22;8570;52.380;4.654;2022-07-25T04:39:53;21.90;96.80
16907;DHT22;8570;52.380;4.654;2022-07-25T04:44:55;21.80;97.10
16907;DHT22;8570;52.380;4.654;2022-07-25T04:49:57;21.90;97.30
16907;DHT22;8570;52.380;4.654;2022-07-25T04:55:00;21.90;98.10
16907;DHT22;8570;52.380;4.654;2022-07-25T05:00:04;21.90;98.60
16907;DHT22;8570;52.380;4.654;2022-07-25T05:05:08;21.90;99.10
16907;DHT22;8570;52.380;4.654;2022-07-25T05:10:11;21.90;99.30
16907;DHT22;8570;52.380;4.654;2022-07-25T05:15:13;21.90;99.90
16907;DHT22;8570;52.380;4.654;2022-07-25T05:20:15;21.90;99.90
16907;DHT22;8570;52.380;4.654;2022-07-25T05:25:19;21.90;99.90
16907;DHT22;8570;52.380;4.654;2022-07-25T05:30:21;21.90;99.90
16907;DHT22;8570;52.380;4.654;2022-07-25T05:35:23;22.00;99.80
16907;DHT22;8570;52.380;4.654;2022-07-25T05:40:26;22.00;99.90
16907;DHT22;8570;52.380;4.654;2022-07-25T05:45:28;22.00;99.90
16907;DHT22;8570;52.380;4.654;2022-07-25T05:50:30;22.00;99.90
16907;DHT22;8570;52.380;4.654;2022-07-25T05:55:33;22.00;99.90
16907;DHT22;8570;52.380;4.654;2022-07-25T06:00:35;21.90;99.90
16907;DHT22;8570;52.380;4.654;2022-07-25T06:05:43;21.90;99.90
16907;DHT22;8570;52.380;4.654;2022-07-25T06:10:48;21.70;99.90
16907;DHT22;8570;52.380;4.654;2022-07-25T06:15:51;21.60;99.90
16907;DHT22;8570;52.380;4.654;2022-07-25T06:20:53;21.50;99.90
16907;DHT22;8570;52.380;4.654;2022-07-25T06:25:56;21.40;99.90
16907;DHT22;8570;52.380;4.654;2022-07-25T06:30:58;21.40;99.90
16907;DHT22;8570;52.380;4.654;2022-07-25T06:36:00;21.40;99.90
16907;DHT22;8570;52.380;4.654;2022-07-25T06:41:03;21.30;99.90
16907;DHT22;8570;52.380;4.654;2022-07-25T06:46:05;21.20;99.90
16907;DHT22;8570;52.380;4.654;2022-07-25T06:51:07;21.20;99.90
16907;DHT22;8570;52.380;4.654;2022-07-25T06:56:10;21.20;99.90
16907;DHT22;8570;52.380;4.654;2022-07-25T07:01:14;21.20;99.90
16907;DHT22;8570;52.380;4.654;2022-07-25T07:06:17;21.20;99.90
16907;DHT22;8570;52.380;4.654;2022-07-25T07:11:21;21.10;99.90
16907;DHT22;8570;52.380;4.654;2022-07-25T07:16:23;21.10;99.90
16907;DHT22;8570;52.380;4.654;2022-07-25T07:21:25;21.00;99.90
16907;DHT22;8570;52.380;4.654;2022-07-25T07:26:29;21.10;99.90
16907;DHT22;8570;52.380;4.654;2022-07-25T07:31:30;21.10;99.90
16907;DHT22;8570;52.380;4.654;2022-07-25T07:36:33;21.10;99.90
16907;DHT22;8570;52.380;4.654;2022-07-25T07:41:36;21.10;99.90
16907;DHT22;8570;52.380;4.654;2022-07-25T07:46:38;21.20;99.90
16907;DHT22;8570;52.380;4.654;2022-07-25T07:51:40;21.30;99.90
16907;DHT22;8570;52.380;4.654;2022-07-25T07:56:43;21.30;99.90
16907;DHT22;8570;52.380;4.654;2022-07-25T08:01:46;21.30;99.90
16907;DHT22;8570;52.380;4.654;2022-07-25T08:06:48;21.30;99.90
16907;DHT22;8570;52.380;4.654;2022-07-25T08:11:51;21.40;99.90
16907;DHT22;8570;52.380;4.654;2022-07-25T08:16:53;21.50;99.90
16907;DHT22;8570;52.380;4.654;2022-07-25T08:21:56;21.50;99.90
16907;DHT22;8570;52.380;4.654;2022-07-25T08:27:00;21.70;99.90
16907;DHT22;8570;52.380;4.654;2022-07-25T08:32:02;22.00;99.90
16907;DHT22;8570;52.380;4.654;2022-07-25T08:37:04;22.30;99.90
16907;DHT22;8570;52.380;4.654;2022-07-25T08:42:07;22.40;99.90
16907;DHT22;8570;52.380;4.654;2022-07-25T08:47:09;22.30;99.90
16907;DHT22;8570;52.380;4.654;2022-07-25T08:52:15;22.30;99.90
16907;DHT22;8570;52.380;4.654;2022-07-25T08:57:20;22.20;99.90
16907;DHT22;8570;52.380;4.654;2022-07-25T09:02:22;22.20;99.90
16907;DHT22;8570;52.380;4.654;2022-07-25T09:07:33;22.20;99.90
16907;DHT22;8570;52.380;4.654;2022-07-25T09:12:37;22.20;99.90
16907;DHT22;8570;52.380;4.654;2022-07-25T09:17:49;22.10;99.90
16907;DHT22;8570;52.380;4.654;2022-07-25T09:22:51;22.10;99.90
16907;DHT22;8570;52.380;4.654;2022-07-25T09:27:54;22.20;99.90
16907;DHT22;8570;52.380;4.654;2022-07-25T09:33:00;22.10;99.90
16907;DHT22;8570;52.380;4.654;2022-07-25T09:38:10;22.00;99.90
16907;DHT22;8570;52.380;4.654;2022-07-25T09:43:13;21.90;99.90
16907;DHT22;8570;52.380;4.654;2022-07-25T09:48:17;22.00;99.90
16907;DHT22;8570;52.380;4.654;2022-07-25T09:53:20;22.10;99.90
16907;DHT22;8570;52.380;4.654;2022-07-25T09:58:23;22.20;99.90
16907;DHT22;8570;52.380;4.654;2022-07-25T10:03:36;22.50;99.90
16907;DHT22;8570;52.380;4.654;2022-07-25T10:08:43;22.50;99.90
16907;DHT22;8570;52.380;4.654;2022-07-25T10:13:47;22.50;99.90
16907;DHT22;8570;52.380;4.654;2022-07-25T10:18:51;22.50;99.90
16907;DHT22;8570;52.380;4.654;2022-07-25T10:23:58;22.40;99.90
16907;DHT22;8570;52.380;4.654;2022-07-25T10:29:07;22.30;99.90
16907;DHT22;8570;52.380;4.654;2022-07-25T10:34:10;22.20;99.90
16907;DHT22;8570;52.380;4.654;2022-07-25T10:39:15;22.20;99.90
16907;DHT22;8570;52.380;4.654;2022-07-25T10:44:19;22.10;99.90
16907;DHT22;8570;52.380;4.654;2022-07-25T10:49:23;22.20;99.90
16907;DHT22;8570;52.380;4.654;2022-07-25T10:54:31;22.30;99.90
16907;DHT22;8570;52.380;4.654;2022-07-25T10:59:37;22.40;99.90
16907;DHT22;8570;52.380;4.654;2022-07-25T11:04:40;22.50;99.90
16907;DHT22;8570;52.380;4.654;2022-07-25T11:09:42;22.80;99.90
16907;DHT22;8570;52.380;4.654;2022-07-25T11:14:46;22.90;99.90
16907;DHT22;8570;52.380;4.654;2022-07-25T11:19:53;23.10;99.90
16907;DHT22;8570;52.380;4.654;2022-07-25T11:24:56;23.40;99.90
16907;DHT22;8570;52.380;4.654;2022-07-25T11:30:06;23.40;99.90
16907;DHT22;8570;52.380;4.654;2022-07-25T11:35:09;23.40;99.90
16907;DHT22;8570;52.380;4.654;2022-07-25T11:40:12;23.30;99.90
16907;DHT22;8570;52.380;4.654;2022-07-25T11:45:18;23.10;99.90
16907;DHT22;8570;52.380;4.654;2022-07-25T11:50:28;23.00;99.90
16907;DHT22;8570;52.380;4.654;2022-07-25T11:55:31;22.90;99.90
16907;DHT22;8570;52.380;4.654;2022-07-25T12:00:39;22.90;99.90
16907;DHT22;8570;52.380;4.654;2022-07-25T12:05:43;22.90;99.90
16907;DHT22;8570;52.380;4.654;2022-07-25T12:10:46;23.10;99.90
16907;DHT22;8570;52.380;4.654;2022-07-25T12:15:50;23.10;99.90
16907;DHT22;8570;52.380;4.654;2022-07-25T12:20:52;23.10;99.90
16907;DHT22;8570;52.380;4.654;2022-07-25T12:25:54;23.30;99.70
16907;DHT22;8570;52.380;4.654;2022-07-25T12:30:58;23.20;99.90
16907;DHT22;8570;52.380;4.654;2022-07-25T12:35:59;23.20;99.90
16907;DHT22;8570;52.380;4.654;2022-07-25T12:41:01;23.20;99.90
16907;DHT22;8570;52.380;4.654;2022-07-25T12:46:05;23.10;99.90
16907;DHT22;8570;52.380;4.654;2022-07-25T12:51:07;23.20;99.90
16907;DHT22;8570;52.380;4.654;2022-07-25T12:56:09;23.20;99.90
16907;DHT22;8570;52.380;4.654;2022-07-25T13:01:16;23.20;99.80
16907;DHT22;8570;52.380;4.654;2022-07-25T13:06:18;23.30;99.90
16907;DHT22;8570;52.380;4.654;2022-07-25T13:11:22;23.30;98.40
16907;DHT22;8570;52.380;4.654;2022-07-25T13:16:25;23.30;98.70
16907;DHT22;8570;52.380;4.654;2022-07-25T13:21:27;23.40;98.70
16907;DHT22;8570;52.380;4.654;2022-07-25T13:26:30;23.50;98.70
16907;DHT22;8570;52.380;4.654;2022-07-25T13:31:34;23.50;98.70
16907;DHT22;8570;52.380;4.654;2022-07-25T13:36:37;23.40;98.90
16907;DHT22;8570;52.380;4.654;2022-07-25T13:41:39;23.60;98.40
16907;DHT22;8570;52.380;4.654;2022-07-25T13:46:42;23.60;98.20
16907;DHT22;8570;52.380;4.654;2022-07-25T13:51:44;23.60;97.90
16907;DHT22;8570;52.380;4.654;2022-07-25T13:56:47;23.80;97.30
16907;DHT22;8570;52.380;4.654;2022-07-25T14:01:50;23.90;96.10
16907;DHT22;8570;52.380;4.654;2022-07-25T14:06:52;23.90;96.70
16907;DHT22;8570;52.380;4.654;2022-07-25T14:11:54;23.90;96.90
16907;DHT22;8570;52.380;4.654;2022-07-25T14:16:58;23.80;97.80
16907;DHT22;8570;52.380;4.654;2022-07-25T14:22:00;23.60;98.40
16907;DHT22;8570;52.380;4.654;2022-07-25T14:27:02;23.60;98.80
16907;DHT22;8570;52.380;4.654;2022-07-25T14:32:06;23.50;98.60
16907;DHT22;8570;52.380;4.654;2022-07-25T14:37:08;23.50;97.50
16907;DHT22;8570;52.380;4.654;2022-07-25T14:42:10;23.30;98.20
16907;DHT22;8570;52.380;4.654;2022-07-25T14:47:13;23.30;98.50
16907;DHT22;8570;52.380;4.654;2022-07-25T14:52:15;23.40;98.50
16907;DHT22;8570;52.380;4.654;2022-07-25T14:57:18;23.40;98.50
16907;DHT22;8570;52.380;4.654;2022-07-25T15:02:21;23.30;98.90
16907;DHT22;8570;52.380;4.654;2022-07-25T15:07:23;23.30;99.20
16907;DHT22;8570;52.380;4.654;2022-07-25T15:12:25;23.10;99.80
16907;DHT22;8570;52.380;4.654;2022-07-25T15:17:28;23.20;99.90
16907;DHT22;8570;52.380;4.654;2022-07-25T15:22:30;23.20;99.70
16907;DHT22;8570;52.380;4.654;2022-07-25T15:27:32;23.10;99.90
16907;DHT22;8570;52.380;4.654;2022-07-25T15:32:36;22.90;99.90
16907;DHT22;8570;52.380;4.654;2022-07-25T15:37:39;22.80;99.90
16907;DHT22;8570;52.380;4.654;2022-07-25T15:42:41;22.70;99.90
16907;DHT22;8570;52.380;4.654;2022-07-25T15:47:45;22.70;99.90
16907;DHT22;8570;52.380;4.654;2022-07-25T15:52:47;22.60;99.90
16907;DHT22;8570;52.380;4.654;2022-07-25T15:57:50;22.70;99.90
16907;DHT22;8570;52.380;4.654;2022-07-25T16:02:54;22.70;99.90
16907;DHT22;8570;52.380;4.654;2022-07-25T16:07:55;22.60;99.90
16907;DHT22;8570;52.380;4.654;2022-07-25T16:12:58;22.50;99.90
16907;DHT22;8570;52.380;4.654;2022-07-25T16:18:01;22.40;99.90
16907;DHT22;8570;52.380;4.654;2022-07-25T16:23:03;22.30;99.90
16907;DHT22;8570;52.380;4.654;2022-07-25T16:28:05;22.10;99.90
16907;DHT22;8570;52.380;4.654;2022-07-25T16:33:08;22.00;99.90
16907;DHT22;8570;52.380;4.654;2022-07-25T16:38:11;21.90;99.90
16907;DHT22;8570;52.380;4.654;2022-07-25T16:43:13;21.80;99.90
16907;DHT22;8570;52.380;4.654;2022-07-25T16:48:16;21.70;99.90
16907;DHT22;8570;52.380;4.654;2022-07-25T17:04:36;21.50;99.90
16907;DHT22;8570;52.380;4.654;2022-07-25T17:09:43;21.30;99.90
16907;DHT22;8570;52.380;4.654;2022-07-25T17:14:45;21.20;99.90
16907;DHT22;8570;52.380;4.654;2022-07-25T17:19:49;21.10;99.90
16907;DHT22;8570;52.380;4.654;2022-07-25T17:24:50;21.10;99.90
16907;DHT22;8570;52.380;4.654;2022-07-25T17:29:55;21.10;99.90
16907;DHT22;8570;52.380;4.654;2022-07-25T17:34:58;21.10;99.90
16907;DHT22;8570;52.380;4.654;2022-07-25T17:40:00;21.10;99.90
16907;DHT22;8570;52.380;4.654;2022-07-25T17:45:02;21.10;99.90
16907;DHT22;8570;52.380;4.654;2022-07-25T17:50:09;21.10;99.90
16907;DHT22;8570;52.380;4.654;2022-07-25T17:55:11;21.10;99.90
16907;DHT22;8570;52.380;4.654;2022-07-25T18:00:14;21.10;99.90
16907;DHT22;8570;52.380;4.654;2022-07-25T18:05:17;21.00;99.90
16907;DHT22;8570;52.380;4.654;2022-07-25T18:10:19;20.90;99.90
16907;DHT22;8570;52.380;4.654;2022-07-25T18:15:23;20.80;99.90
16907;DHT22;8570;52.380;4.654;2022-07-25T18:20:26;20.80;99.90
16907;DHT22;8570;52.380;4.654;2022-07-25T18:25:28;20.70;99.90
16907;DHT22;8570;52.380;4.654;2022-07-25T18:30:30;20.70;99.90
16907;DHT22;8570;52.380;4.654;2022-07-25T18:35:33;20.70;99.90
16907;DHT22;8570;52.380;4.654;2022-07-25T18:40:38;20.70;99.90
16907;DHT22;8570;52.380;4.654;2022-07-25T18:45:40;20.80;99.90
16907;DHT22;8570;52.380;4.654;2022-07-25T18:50:46;20.80;99.90
16907;DHT22;8570;52.380;4.654;2022-07-25T18:56:00;20.80;99.90
16907;DHT22;8570;52.380;4.654;2022-07-25T19:01:04;20.70;99.90
16907;DHT22;8570;52.380;4.654;2022-07-25T19:06:08;20.60;99.90
16907;DHT22;8570;52.380;4.654;2022-07-25T19:11:34;20.60;99.90
16907;DHT22;8570;52.380;4.654;2022-07-25T19:17:28;20.50;99.90
16907;DHT22;8570;52.380;4.654;2022-07-25T19:22:39;20.50;99.90
16907;DHT22;8570;52.380;4.654;2022-07-25T19:27:41;20.40;99.90
16907;DHT22;8570;52.380;4.654;2022-07-25T19:32:43;20.30;99.90
16907;DHT22;8570;52.380;4.654;2022-07-25T19:37:47;20.30;99.90
16907;DHT22;8570;52.380;4.654;2022-07-25T19:42:49;20.30;99.90
16907;DHT22;8570;52.380;4.654;2022-07-25T19:47:51;20.20;99.90
16907;DHT22;8570;52.380;4.654;2022-07-25T19:52:54;20.20;99.90
16907;DHT22;8570;52.380;4.654;2022-07-25T19:57:56;20.20;99.90
16907;DHT22;8570;52.380;4.654;2022-07-25T20:02:58;20.10;99.90
16907;DHT22;8570;52.380;4.654;2022-07-25T20:08:19;20.10;99.90
16907;DHT22;8570;52.380;4.654;2022-07-25T20:13:21;20.00;99.90
16907;DHT22;8570;52.380;4.654;2022-07-25T20:18:23;20.00;99.90
16907;DHT22;8570;52.380;4.654;2022-07-25T20:23:26;19.90;99.90
16907;DHT22;8570;52.380;4.654;2022-07-25T20:28:29;19.90;99.90
16907;DHT22;8570;52.380;4.654;2022-07-25T20:33:31;19.90;99.90
16907;DHT22;8570;52.380;4.654;2022-07-25T20:38:35;19.80;99.90
16907;DHT22;8570;52.380;4.654;2022-07-25T20:43:37;19.80;99.90
16907;DHT22;8570;52.380;4.654;2022-07-25T20:48:41;19.80;99.90
16907;DHT22;8570;52.380;4.654;2022-07-25T20:53:44;19.80;99.90
16907;DHT22;8570;52.380;4.654;2022-07-25T20:58:46;19.80;99.90
16907;DHT22;8570;52.380;4.654;2022-07-25T21:03:48;19.80;99.90
16907;DHT22;8570;52.380;4.654;2022-07-25T21:08:52;19.80;99.90
16907;DHT22;8570;52.380;4.654;2022-07-25T21:13:54;19.80;99.90
16907;DHT22;8570;52.380;4.654;2022-07-25T21:18:56;19.80;99.90
16907;DHT22;8570;52.380;4.654;2022-07-25T21:24:00;19.90;99.90
16907;DHT22;8570;52.380;4.654;2022-07-25T21:29:02;19.90;99.90
16907;DHT22;8570;52.380;4.654;2022-07-25T21:34:03;19.90;99.90
16907;DHT22;8570;52.380;4.654;2022-07-25T21:39:07;19.90;99.90
16907;DHT22;8570;52.380;4.654;2022-07-25T21:44:09;19.90;99.90
16907;DHT22;8570;52.380;4.654;2022-07-25T21:49:10;19.90;99.90
16907;DHT22;8570;52.380;4.654;2022-07-25T21:54:31;19.90;99.90
16907;DHT22;8570;52.380;4.654;2022-07-25T21:59:33;19.90;99.90
16907;DHT22;8570;52.380;4.654;2022-07-25T22:04:35;19.90;99.90
16907;DHT22;8570;52.380;4.654;2022-07-25T22:09:39;19.90;99.90
16907;DHT22;8570;52.380;4.654;2022-07-25T22:14:41;19.90;99.90
16907;DHT22;8570;52.380;4.654;2022-07-25T22:19:43;19.90;99.90
16907;DHT22;8570;52.380;4.654;2022-07-25T22:24:46;19.80;99.90
16907;DHT22;8570;52.380;4.654;2022-07-25T22:29:48;19.80;99.90
16907;DHT22;8570;52.380;4.654;2022-07-25T22:34:50;19.80;99.90
16907;DHT22;8570;52.380;4.654;2022-07-25T22:39:53;19.80;99.90
16907;DHT22;8570;52.380;4.654;2022-07-25T22:44:55;19.80;99.90
16907;DHT22;8570;52.380;4.654;2022-07-25T22:49:57;19.80;99.90
16907;DHT22;8570;52.380;4.654;2022-07-25T22:55:00;19.80;99.90
16907;DHT22;8570;52.380;4.654;2022-07-25T23:00:03;19.80;99.90
16907;DHT22;8570;52.380;4.654;2022-07-25T23:05:06;19.80;99.90
16907;DHT22;8570;52.380;4.654;2022-07-25T23:10:10;19.70;99.90
16907;DHT22;8570;52.380;4.654;2022-07-25T23:15:12;19.70;99.90
16907;DHT22;8570;52.380;4.654;2022-07-25T23:20:14;19.70;99.90
16907;DHT22;8570;52.380;4.654;2022-07-25T23:25:17;19.70;99.90
16907;DHT22;8570;52.380;4.654;2022-07-25T23:30:20;19.70;99.90
16907;DHT22;8570;52.380;4.654;2022-07-25T23:35:22;19.70;99.90
16907;DHT22;8570;52.380;4.654;2022-07-25T23:40:25;19.70;99.90
16907;DHT22;8570;52.380;4.654;2022-07-25T23:45:27;19.70;99.90
16907;DHT22;8570;52.380;4.654;2022-07-25T23:50:29;19.70;99.90
16907;DHT22;8570;52.380;4.654;2022-07-25T23:55:32;19.70;99.90
